createdAt,value
2023-05-06T00:00:20.936Z,10.27
2023-05-06T00:02:48.521Z,11.10
2023-05-06T00:05:18.499Z,10.88
2023-05-06T00:07:46.475Z,11.20
2023-05-06T00:10:14.185Z,10.20
2023-05-06T00:12:41.649Z,10.88
2023-05-06T00:15:09.617Z,10.35
2023-05-06T00:17:37.325Z,11.05
2023-05-06T00:20:05.738Z,10.75
2023-05-06T00:22:33.134Z,11.15
2023-05-06T00:25:00.461Z,10.07
2023-05-06T00:27:28.036Z,10.57
2023-05-06T00:29:55.418Z,9.82
2023-05-06T00:32:23.178Z,9.60
2023-05-06T00:34:51.616Z,9.48
2023-05-06T00:37:19.033Z,9.30
2023-05-06T00:39:46.492Z,9.40
2023-05-06T00:42:13.887Z,9.13
2023-05-06T00:44:41.455Z,9.07
2023-05-06T00:47:09.159Z,9.13
2023-05-06T00:49:36.576Z,9.27
2023-05-06T00:52:04.275Z,8.68
2023-05-06T00:54:32.065Z,8.82
2023-05-06T00:56:59.544Z,9.52
2023-05-06T00:59:27.017Z,8.68
2023-05-06T01:01:54.539Z,8.05
2023-05-06T01:04:24.191Z,8.93
2023-05-06T01:06:58.508Z,8.98
2023-05-06T01:09:33.988Z,8.70
2023-05-06T01:12:10.376Z,9.15
2023-05-06T01:14:42.337Z,8.85
2023-05-06T01:17:11.617Z,9.32
2023-05-06T01:19:46.675Z,9.07
2023-05-06T01:22:14.654Z,8.95
2023-05-06T01:24:43.383Z,9.10
2023-05-06T01:27:11.598Z,10.43
2023-05-06T01:29:41.476Z,9.73
2023-05-06T01:32:21.996Z,9.48
2023-05-06T01:35:08.640Z,10.45
2023-05-06T01:37:56.509Z,10.00
2023-05-06T01:40:25.972Z,9.32
2023-05-06T01:42:53.946Z,10.50
2023-05-06T01:45:21.810Z,10.23
2023-05-06T01:47:50.637Z,10.32
2023-05-06T01:50:18.151Z,9.52
2023-05-06T01:52:45.655Z,9.60
2023-05-06T01:55:13.107Z,10.05
2023-05-06T01:57:40.524Z,9.85
2023-05-06T02:00:08.404Z,9.57
2023-05-06T02:02:39.598Z,9.38
2023-05-06T02:05:08.219Z,9.60
2023-05-06T02:07:40.345Z,9.75
2023-05-06T02:10:08.922Z,9.50
2023-05-06T02:12:39.321Z,9.68
2023-05-06T02:15:07.189Z,10.18
2023-05-06T02:17:35.936Z,8.85
2023-05-06T02:20:03.890Z,8.68
2023-05-06T02:22:31.340Z,9.18
2023-05-06T02:24:58.836Z,9.13
2023-05-06T02:27:26.185Z,9.32
2023-05-06T02:29:55.420Z,8.63
2023-05-06T02:32:23.052Z,9.18
2023-05-06T02:34:51.695Z,9.10
2023-05-06T02:37:21.692Z,8.55
2023-05-06T02:39:49.055Z,8.65
2023-05-06T02:42:16.770Z,8.95
2023-05-06T02:44:46.001Z,8.65
2023-05-06T02:47:13.444Z,9.63
2023-05-06T02:49:40.812Z,8.93
2023-05-06T02:52:08.446Z,9.95
2023-05-06T02:54:36.064Z,9.35
2023-05-06T02:57:03.433Z,8.82
2023-05-06T02:59:30.849Z,9.52
2023-05-06T03:01:58.298Z,9.43
2023-05-06T03:04:25.682Z,9.38
2023-05-06T03:06:53.435Z,9.50
2023-05-06T03:09:20.973Z,9.90
2023-05-06T03:11:48.891Z,10.65
2023-05-06T03:14:16.938Z,9.57
2023-05-06T03:16:44.559Z,10.35
2023-05-06T03:19:12.639Z,10.70
2023-05-06T03:21:41.180Z,11.55
2023-05-06T03:24:09.469Z,10.63
2023-05-06T03:26:37.116Z,10.40
2023-05-06T03:29:05.266Z,10.95
2023-05-06T03:31:32.677Z,10.18
2023-05-06T03:34:02.130Z,10.05
2023-05-06T03:36:29.867Z,10.45
2023-05-06T03:38:57.397Z,10.07
2023-05-06T03:41:25.775Z,10.73
2023-05-06T03:43:55.766Z,10.85
2023-05-06T03:46:26.666Z,10.38
2023-05-06T03:48:54.679Z,10.45
2023-05-06T03:51:22.250Z,11.10
2023-05-06T03:53:50.577Z,9.82
2023-05-06T03:56:18.848Z,10.43
2023-05-06T03:58:49.812Z,10.27
2023-05-06T04:01:18.402Z,10.15
2023-05-06T04:03:45.981Z,10.50
2023-05-06T04:06:14.023Z,10.63
2023-05-06T04:08:41.580Z,9.60
2023-05-06T04:11:09.463Z,9.52
2023-05-06T04:13:38.167Z,9.52
2023-05-06T04:16:12.654Z,9.60
2023-05-06T04:18:44.151Z,9.10
2023-05-06T04:21:14.648Z,9.20
2023-05-06T04:23:46.599Z,8.45
2023-05-06T04:26:18.700Z,8.55
2023-05-06T04:28:47.521Z,8.18
2023-05-06T04:31:15.662Z,8.40
2023-05-06T04:33:46.184Z,8.57
2023-05-06T04:36:17.375Z,8.05
2023-05-06T04:39:03.950Z,7.93
2023-05-06T04:41:31.538Z,9.05
2023-05-06T04:43:59.625Z,8.30
2023-05-06T04:46:27.238Z,8.02
2023-05-06T04:48:55.382Z,8.93
2023-05-06T04:51:23.911Z,7.95
2023-05-06T04:53:52.701Z,8.02
2023-05-06T04:56:21.192Z,8.23
2023-05-06T04:58:49.966Z,8.85
2023-05-06T05:01:19.399Z,8.98
2023-05-06T05:03:46.910Z,9.48
2023-05-06T05:06:14.541Z,9.38
2023-05-06T05:08:42.724Z,9.18
2023-05-06T05:11:10.444Z,9.52
2023-05-06T05:13:38.812Z,8.18
2023-05-06T05:16:07.102Z,9.35
2023-05-06T05:18:37.563Z,8.85
2023-05-06T05:21:12.242Z,9.00
2023-05-06T05:23:40.172Z,8.50
2023-05-06T05:26:07.720Z,8.60
2023-05-06T05:28:35.592Z,7.82
2023-05-06T05:31:04.581Z,7.10
2023-05-06T05:33:34.973Z,7.63
2023-05-06T05:36:04.894Z,7.40
2023-05-06T05:38:32.546Z,7.15
2023-05-06T05:41:00.682Z,6.78
2023-05-06T05:43:28.524Z,7.60
2023-05-06T05:45:56.608Z,7.28
2023-05-06T05:48:24.407Z,7.70
2023-05-06T05:50:52.434Z,7.57
2023-05-06T05:53:20.502Z,7.40
2023-05-06T05:55:47.915Z,7.43
2023-05-06T05:58:15.629Z,7.18
2023-05-06T06:00:44.692Z,7.78
2023-05-06T06:03:15.732Z,7.18
2023-05-06T06:05:44.041Z,7.88
2023-05-06T06:08:12.884Z,7.43
2023-05-06T06:10:41.971Z,7.10
2023-05-06T06:13:15.148Z,7.13
2023-05-06T06:15:43.154Z,7.57
2023-05-06T06:18:10.771Z,7.50
2023-05-06T06:20:39.492Z,7.10
2023-05-06T06:23:07.395Z,7.22
2023-05-06T06:25:35.297Z,7.32
2023-05-06T06:28:02.646Z,7.32
2023-05-06T06:30:30.085Z,7.80
2023-05-06T06:32:58.941Z,7.43
2023-05-06T06:35:26.960Z,7.05
2023-05-06T06:37:55.131Z,7.50
2023-05-06T06:40:22.991Z,6.55
2023-05-06T06:42:51.427Z,7.00
2023-05-06T06:45:37.271Z,7.03
2023-05-06T06:48:04.901Z,6.95
2023-05-06T06:50:33.001Z,6.55
2023-05-06T06:53:00.736Z,7.30
2023-05-06T06:55:28.396Z,7.15
2023-05-06T06:57:58.256Z,7.25
2023-05-06T07:00:26.443Z,6.85
2023-05-06T07:02:54.191Z,6.70
2023-05-06T07:05:21.899Z,7.55
2023-05-06T07:07:49.311Z,6.72
2023-05-06T07:10:17.096Z,6.65
2023-05-06T07:12:44.531Z,7.07
2023-05-06T07:15:12.419Z,7.55
2023-05-06T07:17:40.121Z,7.63
2023-05-06T07:20:07.970Z,7.45
2023-05-06T07:22:35.835Z,6.60
2023-05-06T07:25:03.456Z,7.22
2023-05-06T07:27:31.585Z,7.18
2023-05-06T07:29:59.034Z,7.35
2023-05-06T07:32:26.550Z,7.32
2023-05-06T07:34:53.975Z,7.25
2023-05-06T07:37:21.511Z,7.35
2023-05-06T07:39:48.892Z,7.13
2023-05-06T07:42:16.195Z,7.00
2023-05-06T07:44:43.672Z,7.43
2023-05-06T07:47:11.215Z,7.53
2023-05-06T07:49:38.645Z,6.82
2023-05-06T07:52:06.298Z,7.07
2023-05-06T07:54:33.748Z,7.32
2023-05-06T07:57:01.186Z,6.63
2023-05-06T07:59:28.551Z,6.55
2023-05-06T08:01:55.980Z,6.82
2023-05-06T08:04:23.829Z,6.55
2023-05-06T08:06:51.544Z,7.18
2023-05-06T08:09:23.045Z,6.60
2023-05-06T08:11:51.377Z,6.90
2023-05-06T08:14:18.998Z,7.00
2023-05-06T08:16:46.539Z,6.32
2023-05-06T08:19:14.147Z,6.28
2023-05-06T08:21:41.589Z,6.97
2023-05-06T08:24:10.563Z,6.22
2023-05-06T08:26:38.040Z,6.55
2023-05-06T08:29:05.396Z,6.80
2023-05-06T08:31:32.883Z,6.60
2023-05-06T08:34:00.704Z,7.38
2023-05-06T08:36:28.099Z,6.57
2023-05-06T08:38:55.675Z,6.25
2023-05-06T08:41:23.250Z,6.80
2023-05-06T08:43:51.040Z,6.50
2023-05-06T08:46:18.819Z,6.40
2023-05-06T08:48:46.549Z,6.45
2023-05-06T08:51:17.718Z,6.18
2023-05-06T08:53:48.851Z,6.43
2023-05-06T08:56:16.876Z,6.50
2023-05-06T08:58:48.653Z,6.05
2023-05-06T09:01:16.639Z,6.18
2023-05-06T09:03:44.272Z,6.03
2023-05-06T09:06:11.720Z,6.22
2023-05-06T09:08:39.210Z,6.25
2023-05-06T09:11:26.761Z,6.40
2023-05-06T09:14:13.001Z,5.63
2023-05-06T09:16:42.208Z,5.65
2023-05-06T09:19:09.713Z,6.07
2023-05-06T09:21:38.095Z,5.60
2023-05-06T09:24:06.637Z,6.22
2023-05-06T09:26:35.005Z,6.00
2023-05-06T09:29:02.743Z,5.80
2023-05-06T09:31:30.623Z,6.00
2023-05-06T09:33:59.564Z,5.57
2023-05-06T09:36:28.557Z,5.85
2023-05-06T09:38:57.166Z,6.22
2023-05-06T09:41:25.693Z,5.68
2023-05-06T09:43:54.448Z,6.22
2023-05-06T09:46:22.872Z,6.05
2023-05-06T09:48:54.236Z,6.10
2023-05-06T09:51:22.232Z,5.90
2023-05-06T09:53:49.803Z,6.00
2023-05-06T09:56:17.421Z,6.63
2023-05-06T09:58:46.121Z,6.00
2023-05-06T10:01:19.102Z,5.90
2023-05-06T10:03:54.300Z,6.20
2023-05-06T10:06:23.860Z,5.90
2023-05-06T10:08:51.917Z,5.93
2023-05-06T10:11:20.473Z,6.00
2023-05-06T10:13:48.477Z,6.10
2023-05-06T10:16:16.354Z,6.00
2023-05-06T10:18:45.799Z,6.75
2023-05-06T10:21:17.628Z,6.10
2023-05-06T10:23:50.849Z,6.05
2023-05-06T10:26:20.070Z,5.93
2023-05-06T10:28:52.754Z,6.00
2023-05-06T10:31:20.359Z,6.15
2023-05-06T10:33:49.481Z,6.20
2023-05-06T10:36:22.739Z,6.07
2023-05-06T10:38:54.927Z,6.20
2023-05-06T10:41:22.901Z,6.38
2023-05-06T10:43:56.814Z,6.00
2023-05-06T10:46:26.381Z,6.30
2023-05-06T10:49:06.383Z,6.60
2023-05-06T10:51:34.278Z,6.63
2023-05-06T10:54:08.688Z,5.70
2023-05-06T10:56:36.116Z,7.18
2023-05-06T10:59:13.068Z,7.28
2023-05-06T11:01:41.474Z,7.25
2023-05-06T11:04:09.802Z,7.53
2023-05-06T11:06:38.361Z,7.15
2023-05-06T11:09:06.062Z,8.65
2023-05-06T11:11:52.392Z,8.15
2023-05-06T11:14:27.314Z,10.02
2023-05-06T11:16:56.925Z,10.20
2023-05-06T11:19:25.684Z,9.90
2023-05-06T11:21:53.826Z,10.02
2023-05-06T11:24:25.450Z,11.55
2023-05-06T11:26:53.296Z,14.48
2023-05-06T11:29:20.975Z,12.70
2023-05-06T11:31:49.613Z,13.35
2023-05-06T11:34:22.026Z,11.93
2023-05-06T11:36:50.723Z,11.98
2023-05-06T11:39:18.188Z,12.00
2023-05-06T11:41:45.746Z,12.50
2023-05-06T11:44:14.832Z,12.10
2023-05-06T11:46:44.463Z,12.45
2023-05-06T11:49:14.626Z,12.20
2023-05-06T11:51:42.014Z,13.15
2023-05-06T11:54:11.051Z,13.75
2023-05-06T11:56:48.727Z,13.55
2023-05-06T11:59:16.332Z,14.00
2023-05-06T12:01:44.175Z,15.45
2023-05-06T12:04:12.236Z,15.98
2023-05-06T12:06:40.346Z,16.50
2023-05-06T12:09:10.327Z,16.70
2023-05-06T12:11:38.525Z,16.42
2023-05-06T12:14:07.120Z,29.90
2023-05-06T12:16:35.867Z,18.13
2023-05-06T12:19:03.410Z,18.05
2023-05-06T12:21:31.716Z,18.95
2023-05-06T12:24:00.916Z,19.52
2023-05-06T12:26:30.218Z,18.75
2023-05-06T12:29:07.979Z,18.92
2023-05-06T12:31:35.467Z,19.33
2023-05-06T12:34:03.184Z,20.83
2023-05-06T12:36:30.855Z,20.52
2023-05-06T12:38:59.040Z,20.33
2023-05-06T12:41:37.513Z,20.58
2023-05-06T12:44:05.572Z,20.60
2023-05-06T12:46:33.990Z,21.73
2023-05-06T12:49:01.961Z,21.95
2023-05-06T12:51:30.963Z,23.25
2023-05-06T12:53:58.629Z,21.48
2023-05-06T12:56:26.107Z,22.52
2023-05-06T12:58:57.639Z,27.85
2023-05-06T13:01:25.141Z,22.58
2023-05-06T13:03:52.876Z,21.75
2023-05-06T13:06:20.333Z,23.15
2023-05-06T13:08:47.710Z,24.52
2023-05-06T13:11:15.197Z,25.55
2023-05-06T13:13:42.659Z,23.05
2023-05-06T13:16:10.159Z,24.13
2023-05-06T13:18:37.704Z,23.02
2023-05-06T13:21:05.177Z,26.73
2023-05-06T13:23:35.170Z,25.90
2023-05-06T13:26:05.983Z,26.40
2023-05-06T13:28:36.668Z,27.55
2023-05-06T13:31:04.448Z,28.13
2023-05-06T13:33:31.849Z,29.33
2023-05-06T13:35:59.210Z,30.65
2023-05-06T13:38:26.648Z,29.25
2023-05-06T13:40:54.720Z,28.77
2023-05-06T13:43:24.760Z,27.25
2023-05-06T13:45:52.242Z,30.65
2023-05-06T13:48:19.814Z,28.10
2023-05-06T13:50:47.939Z,28.95
2023-05-06T13:53:15.667Z,27.55
2023-05-06T13:55:43.679Z,26.63
2023-05-06T13:58:11.360Z,28.08
2023-05-06T14:00:39.168Z,29.38
2023-05-06T14:03:07.000Z,26.15
2023-05-06T14:05:34.736Z,25.20
2023-05-06T14:08:02.276Z,25.60
2023-05-06T14:10:29.614Z,26.88
2023-05-06T14:12:56.958Z,27.60
2023-05-06T14:15:24.457Z,29.42
2023-05-06T14:17:52.079Z,28.15
2023-05-06T14:20:19.585Z,28.60
2023-05-06T14:22:47.132Z,28.98
2023-05-06T14:25:14.632Z,27.85
2023-05-06T14:27:42.200Z,27.30
2023-05-06T14:30:10.077Z,27.05
2023-05-06T14:32:37.792Z,28.65
2023-05-06T14:35:05.592Z,26.55
2023-05-06T14:37:32.955Z,28.05
2023-05-06T14:40:00.391Z,30.92
2023-05-06T14:42:27.918Z,32.58
2023-05-06T14:44:55.480Z,34.90
2023-05-06T14:47:23.735Z,34.47
2023-05-06T14:49:51.177Z,34.70
2023-05-06T14:52:18.811Z,36.35
2023-05-06T14:54:46.205Z,34.30
2023-05-06T14:57:13.564Z,35.75
2023-05-06T14:59:41.119Z,33.97
2023-05-06T15:02:09.871Z,34.67
2023-05-06T15:04:37.521Z,34.90
2023-05-06T15:07:05.441Z,33.35
2023-05-06T15:09:33.005Z,33.17
2023-05-06T15:12:00.669Z,29.23
2023-05-06T15:14:28.180Z,29.08
2023-05-06T15:16:57.172Z,28.27
2023-05-06T15:19:25.096Z,25.42
2023-05-06T15:21:52.394Z,26.35
2023-05-06T15:24:19.806Z,26.42
2023-05-06T15:26:47.163Z,27.02
2023-05-06T15:29:14.931Z,28.13
2023-05-06T15:31:44.848Z,28.85
2023-05-06T15:34:12.878Z,30.23
2023-05-06T15:36:43.297Z,28.67
2023-05-06T15:39:10.841Z,26.58
2023-05-06T15:41:38.955Z,26.33
2023-05-06T15:44:06.657Z,28.20
2023-05-06T15:46:34.462Z,26.95
2023-05-06T15:49:31.951Z,27.83
2023-05-06T15:51:49.731Z,27.95
2023-05-06T15:54:20.105Z,27.77
2023-05-06T15:56:47.741Z,28.08
2023-05-06T15:59:15.438Z,29.80
2023-05-06T16:02:24.817Z,29.55
2023-05-06T16:04:31.463Z,30.40
2023-05-06T16:06:59.064Z,31.20
2023-05-06T16:09:26.649Z,31.33
2023-05-06T16:11:54.969Z,31.40
2023-05-06T16:14:22.804Z,32.75
2023-05-06T16:16:50.541Z,30.55
2023-05-06T16:19:19.594Z,28.05
2023-05-06T16:21:48.343Z,28.38
2023-05-06T16:24:16.169Z,28.25
2023-05-06T16:26:43.596Z,29.20
2023-05-06T16:29:11.024Z,28.55
2023-05-06T16:31:38.528Z,29.25
2023-05-06T16:36:33.497Z,29.15
2023-05-06T16:39:00.957Z,31.35
2023-05-06T16:41:28.395Z,30.50
2023-05-06T16:43:56.075Z,32.35
2023-05-06T16:46:24.606Z,33.58
2023-05-06T16:48:53.450Z,33.70
2023-05-06T16:51:20.881Z,34.13
2023-05-06T16:53:48.672Z,34.38
2023-05-06T16:56:16.147Z,35.78
2023-05-06T16:58:43.796Z,34.83
2023-05-06T17:01:11.985Z,35.72
2023-05-06T17:03:40.474Z,36.60
2023-05-06T17:06:08.354Z,35.88
2023-05-06T17:08:37.239Z,36.05
2023-05-06T17:11:06.958Z,36.00
2023-05-06T17:13:34.931Z,37.72
2023-05-06T17:16:02.328Z,37.50
2023-05-06T17:18:29.789Z,36.40
2023-05-06T17:20:57.941Z,36.30
2023-05-06T17:23:25.534Z,33.55
2023-05-06T17:25:53.091Z,30.67
2023-05-06T17:28:20.908Z,30.73
2023-05-06T17:30:48.324Z,30.17
2023-05-06T17:33:16.101Z,31.33
2023-05-06T17:35:43.998Z,30.50
2023-05-06T17:38:12.954Z,31.35
2023-05-06T17:40:40.688Z,32.53
2023-05-06T17:43:08.060Z,31.85
2023-05-06T17:45:35.913Z,30.25
2023-05-06T17:48:03.447Z,30.95
2023-05-06T17:50:31.108Z,29.90
2023-05-06T17:52:58.509Z,31.02
2023-05-06T17:55:26.030Z,30.77
2023-05-06T17:57:53.572Z,32.67
2023-05-06T18:00:21.708Z,31.73
2023-05-06T18:02:49.189Z,30.63
2023-05-06T18:05:17.580Z,31.23
2023-05-06T18:07:45.131Z,31.92
2023-05-06T18:10:12.867Z,29.92
2023-05-06T18:12:40.681Z,29.90
2023-05-06T18:15:09.408Z,31.20
2023-05-06T18:17:37.128Z,32.17
2023-05-06T18:20:06.599Z,31.63
2023-05-06T18:22:34.148Z,30.73
2023-05-06T18:25:01.714Z,31.98
2023-05-06T18:27:29.714Z,32.25
2023-05-06T18:29:59.208Z,32.60
2023-05-06T18:32:26.669Z,32.53
2023-05-06T18:34:54.494Z,34.10
2023-05-06T18:37:21.977Z,32.78
2023-05-06T18:39:49.418Z,33.95
2023-05-06T18:42:16.827Z,34.15
2023-05-06T18:44:44.374Z,34.80
2023-05-06T18:47:11.857Z,36.13
2023-05-06T18:49:39.240Z,36.28
2023-05-06T18:52:06.939Z,35.22
2023-05-06T18:54:34.306Z,35.55
2023-05-06T18:57:02.473Z,35.10
2023-05-06T18:59:29.941Z,34.97
2023-05-06T19:01:57.311Z,34.83
2023-05-06T19:04:26.098Z,34.72
2023-05-06T19:06:53.607Z,32.90
2023-05-06T19:09:21.536Z,31.52
2023-05-06T19:11:48.932Z,31.83
2023-05-06T19:14:16.469Z,33.75
2023-05-06T19:16:43.855Z,32.33
2023-05-06T19:19:11.370Z,33.20
2023-05-06T19:21:38.775Z,35.22
2023-05-06T19:24:06.604Z,34.50
2023-05-06T19:26:34.084Z,35.33
2023-05-06T19:29:01.483Z,36.15
2023-05-06T19:31:29.136Z,36.15
2023-05-06T19:33:57.069Z,35.33
2023-05-06T19:36:24.394Z,35.67
2023-05-06T19:38:52.175Z,35.50
2023-05-06T19:41:19.739Z,38.13
2023-05-06T19:43:47.208Z,37.83
2023-05-06T19:46:15.056Z,35.80
2023-05-06T19:48:42.489Z,35.35
2023-05-06T19:51:09.894Z,35.42
2023-05-06T19:53:37.464Z,37.17
2023-05-06T19:56:11.738Z,36.30
2023-05-06T19:58:39.789Z,35.15
2023-05-06T20:01:07.137Z,34.97
2023-05-06T20:03:34.809Z,35.13
2023-05-06T20:06:02.226Z,34.67
2023-05-06T20:08:29.662Z,33.22
2023-05-06T20:10:57.219Z,32.22
2023-05-06T20:13:24.701Z,33.22
2023-05-06T20:15:52.765Z,32.75
2023-05-06T20:18:20.242Z,35.90
2023-05-06T20:20:47.704Z,34.08
2023-05-06T20:23:15.225Z,34.97
2023-05-06T20:25:42.575Z,34.65
2023-05-06T20:28:10.200Z,36.30
2023-05-06T20:30:38.670Z,36.15
2023-05-06T20:33:06.408Z,34.58
2023-05-06T20:35:38.430Z,34.47
2023-05-06T20:38:06.591Z,32.55
2023-05-06T20:40:38.032Z,32.58
2023-05-06T20:43:05.408Z,31.90
2023-05-06T20:45:32.881Z,30.48
2023-05-06T20:48:00.356Z,30.85
2023-05-06T20:50:29.985Z,31.65
2023-05-06T20:52:57.680Z,30.77
2023-05-06T20:55:25.874Z,31.08
2023-05-06T20:57:53.495Z,30.58
2023-05-06T21:00:21.346Z,29.70
2023-05-06T21:02:48.800Z,29.30
2023-05-06T21:05:16.462Z,29.95
2023-05-06T21:07:43.804Z,30.60
2023-05-06T21:10:11.410Z,30.17
2023-05-06T21:12:38.891Z,32.03
2023-05-06T21:15:06.768Z,31.88
2023-05-06T21:17:34.375Z,30.52
2023-05-06T21:20:03.048Z,30.52
2023-05-06T21:22:31.660Z,30.60
2023-05-06T21:24:59.030Z,28.88
2023-05-06T21:27:26.521Z,28.33
2023-05-06T21:29:54.031Z,27.08
2023-05-06T21:32:21.552Z,28.10
2023-05-06T21:34:49.199Z,26.83
2023-05-06T21:37:16.597Z,25.02
2023-05-06T21:39:43.906Z,24.92
2023-05-06T21:42:11.275Z,24.80
2023-05-06T21:44:38.687Z,25.60
2023-05-06T21:47:06.244Z,24.92
2023-05-06T21:49:33.632Z,26.15
2023-05-06T21:52:01.216Z,25.30
2023-05-06T21:54:28.575Z,25.92
2023-05-06T21:56:56.117Z,25.20
2023-05-06T21:59:23.495Z,25.63
2023-05-06T22:01:51.036Z,25.92
2023-05-06T22:04:20.093Z,26.15
2023-05-06T22:06:47.599Z,26.02
2023-05-06T22:09:15.035Z,23.83
2023-05-06T22:11:42.391Z,23.35
2023-05-06T22:14:09.852Z,21.70
2023-05-06T22:16:38.850Z,23.15
2023-05-06T22:19:06.766Z,22.42
2023-05-06T22:21:34.989Z,22.00
2023-05-06T22:24:02.604Z,22.40
2023-05-06T22:26:30.202Z,22.27
2023-05-06T22:28:57.567Z,21.98
2023-05-06T22:31:25.224Z,22.83
2023-05-06T22:33:55.637Z,23.02
2023-05-06T22:36:23.206Z,23.67
2023-05-06T22:38:50.566Z,23.33
2023-05-06T22:41:18.494Z,22.92
2023-05-06T22:43:45.891Z,23.10
2023-05-06T22:46:13.502Z,25.02
2023-05-06T22:48:40.918Z,23.05
2023-05-06T22:51:08.293Z,24.25
2023-05-06T22:53:36.088Z,22.98
2023-05-06T22:56:03.482Z,22.95
2023-05-06T22:58:31.318Z,22.90
2023-05-06T23:00:58.703Z,22.83
2023-05-06T23:03:26.249Z,23.05
2023-05-06T23:05:53.578Z,22.98
2023-05-06T23:08:21.283Z,22.33
2023-05-06T23:10:48.662Z,21.48
2023-05-06T23:13:16.362Z,21.48
2023-05-06T23:15:43.869Z,21.95
2023-05-06T23:18:11.632Z,21.65
2023-05-06T23:20:39.211Z,20.50
2023-05-06T23:23:10.634Z,21.08
2023-05-06T23:25:38.029Z,20.42
2023-05-06T23:28:05.584Z,20.42
2023-05-06T23:30:32.969Z,21.48
2023-05-06T23:33:00.614Z,20.38
2023-05-06T23:35:28.021Z,21.75
2023-05-06T23:37:55.368Z,21.13
2023-05-06T23:40:22.848Z,20.95
2023-05-06T23:42:50.383Z,21.23
2023-05-06T23:45:18.038Z,20.85
2023-05-06T23:47:45.590Z,21.38
2023-05-06T23:50:13.353Z,22.33
2023-05-06T23:52:41.113Z,21.65
2023-05-06T23:55:09.004Z,22.50
2023-05-06T23:57:36.757Z,21.60
